createdAt,value
2023-05-23T00:01:51.115Z,13.97
2023-05-23T00:04:22.270Z,13.92
2023-05-23T00:06:50.984Z,13.85
2023-05-23T00:09:20.089Z,13.78
2023-05-23T00:11:48.596Z,13.72
2023-05-23T00:14:17.279Z,13.69
2023-05-23T00:16:46.678Z,13.66
2023-05-23T00:19:16.399Z,13.62
2023-05-23T00:21:51.428Z,13.55
2023-05-23T00:24:20.801Z,13.49
2023-05-23T00:26:49.386Z,13.46
2023-05-23T00:29:17.943Z,13.41
2023-05-23T00:31:47.214Z,13.36
2023-05-23T00:34:19.875Z,13.29
2023-05-23T00:36:50.718Z,13.21
2023-05-23T00:39:21.974Z,13.10
2023-05-23T00:41:52.586Z,12.99
2023-05-23T00:44:22.342Z,12.90
2023-05-23T00:46:55.586Z,12.86
2023-05-23T00:49:25.045Z,12.81
2023-05-23T00:51:53.476Z,12.79
2023-05-23T00:54:27.566Z,12.73
2023-05-23T00:56:56.389Z,12.65
2023-05-23T00:59:26.292Z,12.60
2023-05-23T01:01:56.614Z,12.58
2023-05-23T01:04:28.696Z,12.58
2023-05-23T01:06:58.026Z,12.60
2023-05-23T01:09:31.214Z,12.61
2023-05-23T01:12:14.517Z,12.63
2023-05-23T01:14:55.361Z,12.61
2023-05-23T01:17:54.997Z,12.63
2023-05-23T01:20:29.126Z,12.59
2023-05-23T01:23:07.143Z,12.56
2023-05-23T01:25:36.522Z,12.54
2023-05-23T01:28:08.233Z,12.48
2023-05-23T01:30:41.386Z,12.42
2023-05-23T01:33:12.037Z,12.36
2023-05-23T01:35:40.912Z,12.29
2023-05-23T01:38:09.634Z,12.17
2023-05-23T01:40:38.263Z,12.02
2023-05-23T01:43:07.504Z,11.96
2023-05-23T01:45:36.534Z,11.95
2023-05-23T01:48:06.623Z,11.97
2023-05-23T01:50:35.427Z,11.97
2023-05-23T01:53:04.749Z,11.94
2023-05-23T01:55:33.400Z,11.87
2023-05-23T01:58:03.316Z,11.81
2023-05-23T02:00:31.813Z,11.77
2023-05-23T02:03:00.396Z,11.73
2023-05-23T02:05:28.981Z,11.73
2023-05-23T02:07:57.496Z,11.73
2023-05-23T02:10:26.605Z,11.73
2023-05-23T02:12:55.382Z,11.72
2023-05-23T02:15:23.927Z,11.71
2023-05-23T02:17:53.400Z,11.71
2023-05-23T02:20:22.030Z,11.72
2023-05-23T02:22:50.712Z,11.73
2023-05-23T02:25:19.065Z,11.74
2023-05-23T02:27:47.987Z,11.74
2023-05-23T02:30:17.451Z,11.74
2023-05-23T02:32:46.578Z,11.76
2023-05-23T02:35:15.936Z,11.77
2023-05-23T02:37:44.580Z,11.78
2023-05-23T02:40:13.621Z,11.76
2023-05-23T02:42:42.035Z,11.75
2023-05-23T02:45:10.849Z,11.74
2023-05-23T02:47:40.356Z,11.75
2023-05-23T02:50:09.359Z,11.76
2023-05-23T02:52:37.785Z,11.79
2023-05-23T02:55:07.021Z,11.81
2023-05-23T02:57:35.456Z,11.85
2023-05-23T03:00:04.046Z,11.86
2023-05-23T03:02:33.480Z,11.86
2023-05-23T03:05:02.766Z,11.88
2023-05-23T03:07:34.085Z,11.87
2023-05-23T03:10:02.820Z,11.89
2023-05-23T03:12:32.273Z,11.91
2023-05-23T03:15:01.118Z,11.94
2023-05-23T03:17:29.675Z,11.97
2023-05-23T03:19:59.283Z,11.99
2023-05-23T03:22:28.584Z,12.02
2023-05-23T03:24:57.506Z,12.07
2023-05-23T03:27:27.022Z,12.10
2023-05-23T03:29:56.548Z,12.13
2023-05-23T03:32:25.578Z,12.14
2023-05-23T03:34:54.300Z,12.16
2023-05-23T03:37:22.882Z,12.17
2023-05-23T03:39:51.888Z,12.21
2023-05-23T03:42:20.497Z,12.25
2023-05-23T03:44:50.313Z,12.28
2023-05-23T03:47:18.988Z,12.30
2023-05-23T03:49:48.366Z,12.37
2023-05-23T03:52:17.400Z,12.42
2023-05-23T03:54:47.101Z,12.46
2023-05-23T03:57:16.565Z,12.51
2023-05-23T03:59:45.294Z,12.54
2023-05-23T04:02:14.664Z,12.58
2023-05-23T04:04:44.416Z,12.62
2023-05-23T04:07:13.334Z,12.66
2023-05-23T04:09:41.958Z,12.73
2023-05-23T04:12:12.248Z,12.79
2023-05-23T04:14:44.524Z,12.90
2023-05-23T04:17:15.435Z,12.99
2023-05-23T04:19:46.392Z,13.08
2023-05-23T04:22:17.306Z,13.16
2023-05-23T04:24:47.516Z,13.22
2023-05-23T04:27:18.407Z,13.27
2023-05-23T04:29:49.365Z,13.33
2023-05-23T04:32:23.391Z,13.38
2023-05-23T04:34:54.314Z,13.43
2023-05-23T04:37:26.565Z,13.49
2023-05-23T04:39:57.306Z,13.54
2023-05-23T04:42:30.354Z,13.61
2023-05-23T04:45:02.516Z,13.67
2023-05-23T04:47:37.230Z,13.73
2023-05-23T04:50:08.368Z,13.80
2023-05-23T04:52:39.333Z,13.87
2023-05-23T04:55:11.424Z,13.95
2023-05-23T04:57:42.326Z,14.04
2023-05-23T05:00:13.498Z,14.14
2023-05-23T05:02:45.397Z,14.23
2023-05-23T05:05:16.434Z,14.34
2023-05-23T05:07:49.605Z,14.42
2023-05-23T05:10:19.627Z,14.48
2023-05-23T05:20:11.380Z,14.90
2023-05-23T05:22:40.740Z,14.98
2023-05-23T05:25:10.616Z,15.08
2023-05-23T05:27:39.961Z,15.17
2023-05-23T05:30:10.517Z,15.25
2023-05-23T05:32:38.947Z,15.31
2023-05-23T05:35:08.379Z,15.36
2023-05-23T05:37:36.642Z,15.44
2023-05-23T05:40:08.945Z,15.53
2023-05-23T05:46:37.474Z,15.77
2023-05-23T06:07:26.417Z,16.54
2023-05-23T06:09:26.589Z,16.68
2023-05-23T06:42:21.492Z,17.79
2023-05-23T06:46:04.097Z,18.09
2023-05-23T06:48:32.957Z,18.24
2023-05-23T06:51:01.715Z,18.34
2023-05-23T06:53:30.411Z,18.43
2023-05-23T06:56:16.957Z,18.58
2023-05-23T06:58:47.186Z,18.67
2023-05-23T07:01:16.239Z,18.74
2023-05-23T07:03:46.282Z,18.80
2023-05-23T07:06:15.123Z,18.84
2023-05-23T07:08:44.011Z,18.86
2023-05-23T07:11:12.853Z,18.87
2023-05-23T07:13:41.698Z,18.94
2023-05-23T07:16:10.382Z,19.03
2023-05-23T07:18:38.966Z,19.10
2023-05-23T07:21:07.783Z,19.22
2023-05-23T07:23:36.323Z,19.38
2023-05-23T07:26:05.462Z,19.54
2023-05-23T07:28:34.826Z,19.59
2023-05-23T07:31:03.489Z,19.67
2023-05-23T07:33:34.794Z,19.77
2023-05-23T07:38:58.520Z,19.92
2023-05-23T07:42:40.820Z,20.27
2023-05-23T07:47:28.867Z,20.37
2023-05-23T07:49:43.337Z,20.41
2023-05-23T08:00:45.319Z,20.67
2023-05-23T08:08:27.428Z,20.90
2023-05-23T08:11:45.787Z,21.08
2023-05-23T08:16:20.988Z,21.06
2023-05-23T08:35:53.317Z,21.47
2023-05-23T08:43:12.189Z,21.52
2023-05-23T08:44:57.331Z,21.56
2023-05-23T08:58:46.437Z,22.11
2023-05-23T09:02:36.252Z,22.26
2023-05-23T09:05:28.799Z,22.47
2023-05-23T09:12:18.268Z,23.29
2023-05-23T09:15:50.605Z,23.66
2023-05-23T09:19:14.975Z,23.94
2023-05-23T09:22:19.212Z,24.08
2023-05-23T09:25:04.286Z,24.15
2023-05-23T09:28:42.948Z,24.16
2023-05-23T09:31:56.872Z,24.43
2023-05-23T09:35:24.540Z,24.69
2023-05-23T09:42:39.314Z,24.96
2023-05-23T09:46:03.377Z,24.53
2023-05-23T09:49:27.993Z,24.54
2023-05-23T09:52:01.807Z,24.53
2023-05-23T09:54:30.309Z,24.65
2023-05-23T09:57:02.450Z,24.72
2023-05-23T09:59:35.453Z,24.65
2023-05-23T10:02:08.218Z,24.82
2023-05-23T10:04:38.030Z,25.14
2023-05-23T10:07:18.894Z,25.28
2023-05-23T10:10:03.743Z,25.48
2023-05-23T10:13:03.200Z,25.62
2023-05-23T10:15:38.591Z,25.36
2023-05-23T10:18:17.533Z,25.07
2023-05-23T10:20:52.939Z,24.76
2023-05-23T10:23:21.983Z,24.56
2023-05-23T10:25:51.879Z,24.62
2023-05-23T10:28:24.863Z,24.75
2023-05-23T10:30:53.816Z,24.91
2023-05-23T10:33:23.995Z,24.81
2023-05-23T10:36:05.791Z,24.63
2023-05-23T10:38:47.884Z,24.61
2023-05-23T10:41:26.581Z,24.48
2023-05-23T10:44:07.197Z,24.49
2023-05-23T10:46:55.921Z,24.58
2023-05-23T10:49:44.345Z,24.73
2023-05-23T10:52:17.942Z,24.88
2023-05-23T10:54:55.398Z,25.03
2023-05-23T10:57:30.680Z,25.19
2023-05-23T10:59:59.352Z,25.38
2023-05-23T11:03:25.523Z,25.62
2023-05-23T11:06:03.945Z,25.58
2023-05-23T11:08:48.230Z,25.56
2023-05-23T11:11:18.574Z,25.53
2023-05-23T11:13:53.238Z,25.61
2023-05-23T11:16:33.179Z,25.89
2023-05-23T11:19:23.260Z,25.77
2023-05-23T11:22:02.299Z,25.53
2023-05-23T11:24:54.615Z,25.14
2023-05-23T11:27:38.332Z,25.08
2023-05-23T11:30:15.388Z,25.00
2023-05-23T11:33:01.416Z,24.86
2023-05-23T11:35:31.779Z,25.00
2023-05-23T11:38:03.295Z,25.20
2023-05-23T11:40:34.402Z,25.51
2023-05-23T11:43:06.775Z,25.64
2023-05-23T11:45:38.587Z,25.96
2023-05-23T11:48:15.631Z,26.39
2023-05-23T11:50:54.094Z,26.27
2023-05-23T11:53:26.049Z,26.17
2023-05-23T11:56:00.866Z,26.22
2023-05-23T11:58:31.318Z,26.07
2023-05-23T12:01:07.078Z,26.17
2023-05-23T12:03:46.463Z,26.28
2023-05-23T12:06:24.192Z,26.50
2023-05-23T12:08:53.101Z,26.63
2023-05-23T12:11:24.035Z,26.72
2023-05-23T12:13:53.720Z,26.90
2023-05-23T12:16:22.193Z,27.02
2023-05-23T12:18:53.796Z,27.05
2023-05-23T12:22:18.770Z,26.77
2023-05-23T12:25:21.221Z,26.27
2023-05-23T12:28:30.498Z,26.02
2023-05-23T12:32:29.387Z,26.15
2023-05-23T12:35:58.254Z,26.17
2023-05-23T12:39:48.945Z,26.04
2023-05-23T12:47:27.708Z,25.71
2023-05-23T12:50:18.736Z,25.77
2023-05-23T12:56:24.179Z,26.71
2023-05-23T12:58:54.238Z,26.85
2023-05-23T13:01:23.218Z,26.59
2023-05-23T13:03:51.738Z,26.26
2023-05-23T13:06:20.265Z,26.09
2023-05-23T13:08:51.684Z,25.96
2023-05-23T13:11:20.220Z,25.83
2023-05-23T13:13:50.011Z,25.78
2023-05-23T13:16:18.642Z,25.85
2023-05-23T13:18:47.074Z,25.73
2023-05-23T13:21:16.067Z,25.78
2023-05-23T13:23:44.512Z,26.12
2023-05-23T13:26:14.880Z,26.43
2023-05-23T13:28:43.606Z,26.68
2023-05-23T13:31:12.112Z,26.89
2023-05-23T13:33:40.533Z,26.77
2023-05-23T13:36:44.626Z,26.64
2023-05-23T13:39:13.246Z,26.41
2023-05-23T13:41:41.875Z,26.58
2023-05-23T13:44:10.273Z,26.90
2023-05-23T13:46:38.924Z,27.18
2023-05-23T13:49:07.326Z,27.37
2023-05-23T13:51:37.817Z,27.48
2023-05-23T13:54:06.717Z,27.41
2023-05-23T13:56:35.323Z,27.35
2023-05-23T13:59:03.717Z,27.07
2023-05-23T14:01:32.524Z,27.03
2023-05-23T14:04:01.670Z,27.10
2023-05-23T14:06:30.040Z,27.11
2023-05-23T14:08:58.380Z,27.24
2023-05-23T14:11:26.753Z,27.14
2023-05-23T14:13:56.620Z,27.28
2023-05-23T14:16:25.188Z,27.31
2023-05-23T14:18:53.692Z,27.24
2023-05-23T14:21:22.661Z,27.27
2023-05-23T14:23:51.160Z,27.35
2023-05-23T14:26:19.769Z,27.26
2023-05-23T14:28:48.441Z,27.23
2023-05-23T14:31:16.968Z,27.33
2023-05-23T14:33:45.369Z,27.30
2023-05-23T14:36:13.725Z,26.92
2023-05-23T14:38:45.760Z,26.53
2023-05-23T14:41:14.789Z,26.49
2023-05-23T14:43:43.425Z,26.55
2023-05-23T14:46:12.617Z,26.62
2023-05-23T14:48:42.976Z,26.61
2023-05-23T14:51:14.062Z,26.57
2023-05-23T14:53:49.427Z,26.53
2023-05-23T14:56:18.045Z,26.54
2023-05-23T14:58:46.553Z,26.63
2023-05-23T15:01:15.185Z,26.72
2023-05-23T15:03:43.626Z,26.67
2023-05-23T15:06:12.909Z,26.42
2023-05-23T15:08:41.735Z,26.23
2023-05-23T15:11:10.443Z,26.03
2023-05-23T15:13:38.873Z,25.86
2023-05-23T15:16:07.511Z,25.59
2023-05-23T15:18:41.259Z,25.33
2023-05-23T15:21:12.564Z,25.26
2023-05-23T15:23:41.966Z,25.32
2023-05-23T15:26:10.576Z,25.31
2023-05-23T15:28:39.108Z,25.24
2023-05-23T15:31:07.794Z,25.17
2023-05-23T15:33:36.263Z,25.09
2023-05-23T15:36:05.012Z,24.95
2023-05-23T15:38:33.577Z,24.90
2023-05-23T15:41:02.856Z,24.80
2023-05-23T15:43:32.889Z,24.70
2023-05-23T15:46:02.043Z,24.57
2023-05-23T15:48:30.731Z,24.57
2023-05-23T15:50:59.159Z,24.66
2023-05-23T15:53:28.390Z,24.62
2023-05-23T15:55:57.801Z,24.48
2023-05-23T15:58:26.269Z,24.38
2023-05-23T16:00:54.636Z,24.43
2023-05-23T16:03:23.118Z,24.43
2023-05-23T16:05:51.833Z,24.40
2023-05-23T16:08:22.034Z,24.40
2023-05-23T16:10:53.209Z,24.39
2023-05-23T16:13:21.687Z,24.28
2023-05-23T16:15:50.065Z,24.25
2023-05-23T16:18:18.603Z,24.21
2023-05-23T16:20:47.194Z,24.06
2023-05-23T16:23:15.750Z,23.92
2023-05-23T16:25:45.269Z,23.89
2023-05-23T16:28:13.958Z,23.89
2023-05-23T16:30:42.566Z,23.83
2023-05-23T16:33:11.059Z,23.74
2023-05-23T16:35:39.840Z,23.60
2023-05-23T16:38:08.622Z,23.45
2023-05-23T16:40:38.651Z,23.34
2023-05-23T16:43:07.161Z,23.32
2023-05-23T16:45:35.743Z,23.31
2023-05-23T16:48:04.376Z,23.24
2023-05-23T16:50:32.854Z,23.20
2023-05-23T16:53:01.521Z,23.15
2023-05-23T16:55:29.946Z,23.09
2023-05-23T16:57:58.426Z,23.06
2023-05-23T17:00:38.963Z,23.00
2023-05-23T17:07:28.504Z,22.81
2023-05-23T17:14:24.589Z,22.68
2023-05-23T17:17:10.992Z,22.66
2023-05-23T17:19:58.464Z,22.63
2023-05-23T17:22:54.034Z,22.61
2023-05-23T17:25:26.407Z,22.59
2023-05-23T17:28:23.760Z,22.57
2023-05-23T17:31:30.797Z,22.50
2023-05-23T17:34:49.354Z,22.41
2023-05-23T17:38:29.348Z,22.36
2023-05-23T17:44:27.873Z,22.20
2023-05-23T17:48:04.872Z,22.12
2023-05-23T17:50:38.316Z,22.04
2023-05-23T18:05:36.518Z,21.73
2023-05-23T18:24:46.339Z,21.15
2023-05-23T18:40:10.482Z,20.88
2023-05-23T18:43:54.535Z,20.80
2023-05-23T18:46:27.155Z,20.75
2023-05-23T18:48:57.788Z,20.72
2023-05-23T18:51:26.632Z,20.69
2023-05-23T18:53:55.121Z,20.66
2023-05-23T18:56:27.287Z,20.61
2023-05-23T18:58:56.228Z,20.57
2023-05-23T19:01:24.723Z,20.53
2023-05-23T19:03:53.698Z,20.50
2023-05-23T19:06:22.874Z,20.48
2023-05-23T19:08:51.854Z,20.44
2023-05-23T19:11:20.306Z,20.41
2023-05-23T19:13:52.171Z,20.38
2023-05-23T19:16:21.322Z,20.34
2023-05-23T19:18:49.889Z,20.31
2023-05-23T19:21:18.376Z,20.29
2023-05-23T19:25:06.547Z,20.26
2023-05-23T19:27:18.039Z,20.22
2023-05-23T19:30:00.906Z,20.17
2023-05-23T19:32:53.898Z,20.13
2023-05-23T19:35:56.749Z,20.09
2023-05-23T19:39:32.734Z,20.04
2023-05-23T19:43:26.112Z,20.00
2023-05-23T19:47:21.403Z,19.96
2023-05-23T19:53:57.596Z,19.84
2023-05-23T20:00:13.323Z,19.72
2023-05-23T20:02:57.484Z,19.68
2023-05-23T20:05:45.030Z,19.65
2023-05-23T20:08:19.782Z,19.62
2023-05-23T20:10:59.676Z,19.57
2023-05-23T20:13:28.390Z,19.53
2023-05-23T20:15:57.150Z,19.49
2023-05-23T20:18:25.738Z,19.45
2023-05-23T20:20:55.445Z,19.40
2023-05-23T20:23:24.044Z,19.37
2023-05-23T20:25:53.261Z,19.35
2023-05-23T20:28:22.139Z,19.33
2023-05-23T20:30:50.778Z,19.31
2023-05-23T20:33:20.315Z,19.28
2023-05-23T20:35:50.096Z,19.26
2023-05-23T20:38:20.329Z,19.21
2023-05-23T20:40:52.580Z,19.17
2023-05-23T20:43:22.535Z,19.15
2023-05-23T20:45:51.091Z,19.12
2023-05-23T20:48:19.907Z,19.09
2023-05-23T20:50:48.735Z,19.07
2023-05-23T20:53:17.813Z,19.04
2023-05-23T20:55:46.343Z,19.00
2023-05-23T20:58:14.792Z,18.97
2023-05-23T21:00:43.769Z,18.93
2023-05-23T21:03:12.543Z,18.90
2023-05-23T21:05:41.474Z,18.86
2023-05-23T21:08:10.226Z,18.83
2023-05-23T21:10:38.730Z,18.80
2023-05-23T21:13:07.225Z,18.76
2023-05-23T21:15:35.808Z,18.73
2023-05-23T21:18:04.522Z,18.70
2023-05-23T21:20:32.934Z,18.68
2023-05-23T21:23:01.440Z,18.66
2023-05-23T21:25:29.891Z,18.63
2023-05-23T21:27:58.876Z,18.60
2023-05-23T21:30:27.375Z,18.57
2023-05-23T21:32:56.176Z,18.52
2023-05-23T21:35:24.670Z,18.49
2023-05-23T21:37:53.188Z,18.48
2023-05-23T21:40:21.749Z,18.45
2023-05-23T21:42:50.207Z,18.43
2023-05-23T21:45:18.755Z,18.40
2023-05-23T21:47:47.220Z,18.38
2023-05-23T21:50:15.800Z,18.37
2023-05-23T21:52:44.173Z,18.37
2023-05-23T21:55:12.567Z,18.35
2023-05-23T21:57:41.198Z,18.34
2023-05-23T22:00:12.885Z,18.34
2023-05-23T22:02:41.427Z,18.33
2023-05-23T22:05:10.240Z,18.31
2023-05-23T22:07:38.528Z,18.30
2023-05-23T22:10:07.688Z,18.28
2023-05-23T22:12:36.462Z,18.27
2023-05-23T22:15:05.841Z,18.24
2023-05-23T22:17:34.820Z,18.21
2023-05-23T22:20:07.653Z,18.20
2023-05-23T22:22:36.599Z,18.19
2023-05-23T22:25:06.459Z,18.18
2023-05-23T22:27:35.153Z,18.17
2023-05-23T22:30:03.999Z,18.16
2023-05-23T22:32:32.406Z,18.14
2023-05-23T22:35:01.070Z,18.12
2023-05-23T22:37:29.377Z,18.11
2023-05-23T22:39:57.657Z,18.09
2023-05-23T22:42:26.090Z,18.06
2023-05-23T22:44:54.652Z,18.02
2023-05-23T22:47:23.060Z,17.99
2023-05-23T22:49:56.634Z,17.95
2023-05-23T22:52:25.703Z,17.91
2023-05-23T22:54:54.286Z,17.86
2023-05-23T22:57:22.786Z,17.81
2023-05-23T22:59:51.488Z,17.77
2023-05-23T23:02:19.782Z,17.72
2023-05-23T23:04:48.617Z,17.68
2023-05-23T23:07:17.092Z,17.65
2023-05-23T23:09:45.852Z,17.62
2023-05-23T23:12:14.179Z,17.61
2023-05-23T23:14:42.523Z,17.59
2023-05-23T23:17:10.830Z,17.57
2023-05-23T23:19:39.477Z,17.54
2023-05-23T23:22:07.873Z,17.51
2023-05-23T23:24:36.166Z,17.48
2023-05-23T23:27:04.763Z,17.46
2023-05-23T23:29:33.189Z,17.44
2023-05-23T23:32:01.716Z,17.42
2023-05-23T23:34:30.227Z,17.39
2023-05-23T23:36:58.848Z,17.36
2023-05-23T23:39:27.204Z,17.34
2023-05-23T23:41:55.729Z,17.32
2023-05-23T23:44:24.199Z,17.31
2023-05-23T23:46:52.776Z,17.30
2023-05-23T23:49:21.276Z,17.29
2023-05-23T23:51:49.761Z,17.28
2023-05-23T23:54:19.245Z,17.28
2023-05-23T23:56:47.727Z,17.27
2023-05-23T23:59:16.134Z,17.27
